Time;durP1;ratioP1;P1;durP2;ratioP2;P2;SDS_P1;SDS_P2;PMS_P1;PMS_P2;Temp;Humidity;BMP_temperature;BMP_pressure;BME280_temperature;BME280_humidity;BME280_pressure;Samples;Min_cycle;Max_cycle;Signal;HPM_P1;HPM_P2
2023/08/24 00:01:08;;;;;;;15.65;11.60;;;;;;;25.20;54.09;95385.31;5054210;28;20498;-78
2023/08/24 00:03:34;;;;;;;17.10;10.50;;;;;;;25.08;53.98;95361.09;5056284;28;20027;-78
2023/08/24 00:05:59;;;;;;;14.45;11.35;;;;;;;25.06;53.83;95362.59;5053974;28;20032;-79
2023/08/24 00:08:25;;;;;;;20.17;10.93;;;;;;;25.19;54.05;95382.97;5056834;28;20123;-78
2023/08/24 00:10:50;;;;;;;13.88;11.73;;;;;;;25.04;54.17;95364.88;5053952;28;20024;-78
2023/08/24 00:13:16;;;;;;;18.42;12.10;;;;;;;25.10;54.17;95366.16;5071974;28;20056;-78
2023/08/24 00:15:41;;;;;;;16.40;11.60;;;;;;;25.07;54.01;95370.38;5053381;28;20458;-78
2023/08/24 00:18:07;;;;;;;15.15;11.93;;;;;;;25.11;54.38;95375.84;5056972;28;20388;-78
2023/08/24 00:20:33;;;;;;;16.60;11.85;;;;;;;24.93;54.37;95343.00;5071965;28;20033;-78
2023/08/24 00:22:59;;;;;;;15.50;12.65;;;;;;;24.92;54.89;95371.25;5071977;28;20060;-78
2023/08/24 00:25:25;;;;;;;22.13;12.38;;;;;;;24.78;55.27;95354.69;5050209;28;20068;-78
2023/08/24 00:27:53;;;;;;;17.00;11.95;;;;;;;24.84;55.17;95356.75;5058467;28;20419;-79
2023/08/24 00:30:18;;;;;;;14.60;12.05;;;;;;;24.36;55.67;95293.09;5077473;28;20466;-78
2023/08/24 00:32:44;;;;;;;21.48;12.07;;;;;;;24.76;55.80;95360.47;5090578;28;20092;-78
2023/08/24 00:35:10;;;;;;;16.73;12.15;;;;;;;24.69;55.87;95354.91;5072954;28;20032;-78
2023/08/24 00:37:37;;;;;;;21.27;12.32;;;;;;;24.80;55.84;95377.59;5086062;28;20077;-78
2023/08/24 00:40:08;;;;;;;18.10;12.73;;;;;;;24.72;55.42;95367.00;5081784;28;20032;-79
2023/08/24 00:42:40;;;;;;;24.33;13.18;;;;;;;24.78;55.11;95366.31;5083299;28;20016;-78
2023/08/24 00:45:07;;;;;;;16.52;12.02;;;;;;;24.21;55.83;95293.94;5076016;28;20030;-78
2023/08/24 00:47:33;;;;;;;16.02;11.23;;;;;;;24.69;55.64;95362.25;5072827;28;20416;-78
2023/08/24 00:50:03;;;;;;;17.35;12.02;;;;;;;24.57;55.31;95350.41;5095641;28;20391;-79
2023/08/24 00:52:32;;;;;;;17.83;12.38;;;;;;;24.65;55.37;95362.19;5091412;28;20082;-78
2023/08/24 00:54:59;;;;;;;21.02;12.50;;;;;;;24.82;55.43;95382.66;5087163;28;20380;-78
2023/08/24 00:57:26;;;;;;;18.52;12.38;;;;;;;24.73;55.64;95368.53;5075611;28;20059;-78
2023/08/24 00:59:51;;;;;;;21.65;12.18;;;;;;;24.77;55.55;95374.81;5092074;28;20034;-79
2023/08/24 01:02:17;;;;;;;15.80;12.68;;;;;;;24.65;55.36;95366.81;5093761;28;20023;-78
2023/08/24 01:04:42;;;;;;;18.35;12.60;;;;;;;24.49;56.48;95385.88;5090903;28;20107;-79
2023/08/24 01:07:09;;;;;;;17.42;12.15;;;;;;;24.39;56.66;95375.63;5073680;28;20074;-79
2023/08/24 01:09:35;;;;;;;19.27;12.20;;;;;;;24.30;56.65;95364.19;5090939;28;20028;-78
2023/08/24 01:12:13;;;;;;;19.20;12.82;;;;;;;24.23;56.69;95362.13;5093946;28;20042;-78
2023/08/24 01:14:48;;;;;;;19.90;13.00;;;;;;;24.33;56.53;95358.88;5072342;28;20032;-78
2023/08/24 01:17:18;;;;;;;19.73;13.60;;;;;;;24.29;56.71;95363.41;5074684;28;20036;-78
2023/08/24 01:19:44;;;;;;;17.30;12.43;;;;;;;24.10;57.03;95360.69;5093318;28;20027;-79
2023/08/24 01:22:49;;;;;;;20.08;14.05;;;;;;;24.22;57.14;95374.09;5076471;28;20039;-78
2023/08/24 01:25:17;;;;;;;19.15;12.90;;;;;;;24.19;57.71;95369.34;5075996;28;20512;-77
2023/08/24 01:27:45;;;;;;;17.55;12.85;;;;;;;24.16;57.61;95370.88;5075614;28;20063;-78
2023/08/24 01:30:11;;;;;;;21.48;13.02;;;;;;;23.94;57.49;95335.56;5076556;28;20441;-78
2023/08/24 01:32:36;;;;;;;15.00;13.18;;;;;;;24.23;57.80;95378.41;5075501;28;20079;-78
2023/08/24 01:35:09;;;;;;;17.83;13.93;;;;;;;24.11;57.30;95364.94;5075336;28;20055;-79
2023/08/24 01:37:35;;;;;;;18.05;13.18;;;;;;;23.94;57.62;95366.13;5093000;28;20039;-78
2023/08/24 01:40:12;;;;;;;17.85;12.95;;;;;;;24.07;57.92;95377.63;5094681;28;20118;-78
2023/08/24 01:42:59;;;;;;;18.00;13.52;;;;;;;24.03;57.68;95369.41;5072992;28;20027;-78
2023/08/24 01:45:29;;;;;;;19.65;14.40;;;;;;;24.07;57.59;95380.34;5092237;28;20409;-79
2023/08/24 01:47:56;;;;;;;20.83;13.50;;;;;;;23.85;57.82;95333.03;5082720;28;20059;-81
2023/08/24 01:50:22;;;;;;;21.15;14.35;;;;;;;23.99;57.57;95344.19;5105657;28;20258;-81
2023/08/24 01:52:49;;;;;;;18.95;14.48;;;;;;;24.05;57.13;95364.44;5103400;28;20111;-81
2023/08/24 01:55:17;;;;;;;20.33;14.02;;;;;;;24.04;57.15;95362.06;5089112;28;20040;-81
2023/08/24 01:57:42;;;;;;;22.58;13.98;;;;;;;24.18;57.08;95375.94;5106004;28;20086;-81
2023/08/24 02:00:09;;;;;;;18.83;13.18;;;;;;;23.98;57.05;95342.59;5097529;28;20032;-81
2023/08/24 02:02:35;;;;;;;22.25;13.98;;;;;;;24.12;56.81;95361.88;5108801;28;20024;-81
2023/08/24 02:05:02;;;;;;;20.92;13.82;;;;;;;24.21;56.50;95375.25;5090918;28;20044;-82
2023/08/24 02:07:28;;;;;;;20.08;14.07;;;;;;;24.07;56.40;95372.22;5106789;28;20126;-82
2023/08/24 02:09:53;;;;;;;20.88;13.55;;;;;;;24.09;56.46;95361.81;5112158;28;20035;-82
2023/08/24 02:12:19;;;;;;;23.77;13.52;;;;;;;23.96;57.49;95380.09;5105798;28;20040;-80
2023/08/24 02:14:44;;;;;;;20.05;13.68;;;;;;;23.92;57.04;95367.63;5107828;28;20054;-81
2023/08/24 02:17:09;;;;;;;21.63;13.40;;;;;;;23.76;57.03;95348.69;5090337;28;20207;-81
2023/08/24 02:19:35;;;;;;;19.50;13.60;;;;;;;23.86;57.22;95369.81;5109351;28;20032;-81
2023/08/24 02:22:00;;;;;;;21.35;13.98;;;;;;;23.69;58.01;95359.38;5104348;28;20024;-81
2023/08/24 02:24:26;;;;;;;23.50;14.38;;;;;;;23.60;58.33;95353.34;5089154;28;20095;-81
2023/08/24 02:26:51;;;;;;;22.50;14.48;;;;;;;23.70;57.91;95350.13;5093534;28;20032;-81
2023/08/24 02:29:17;;;;;;;24.98;13.75;;;;;;;23.64;57.92;95341.50;5117708;28;20467;-82
2023/08/24 02:31:42;;;;;;;21.80;13.43;;;;;;;23.90;58.57;95391.56;5100378;28;20071;-82
2023/08/24 02:34:08;;;;;;;22.60;14.32;;;;;;;23.70;58.56;95374.47;5110034;28;20585;-82
2023/08/24 02:36:33;;;;;;;19.33;14.18;;;;;;;23.37;59.21;95340.44;5084226;28;20122;-82
2023/08/24 02:38:59;;;;;;;18.35;13.27;;;;;;;23.66;59.14;95382.50;5091810;28;20036;-82
2023/08/24 02:41:25;;;;;;;19.75;13.55;;;;;;;23.13;59.25;95297.31;5072460;28;20047;-81
2023/08/24 02:43:51;;;;;;;22.70;14.05;;;;;;;23.54;59.38;95371.00;5067710;28;20036;-82
2023/08/24 02:46:18;;;;;;;18.48;14.23;;;;;;;23.16;59.65;95320.19;5098643;28;20062;-82
2023/08/24 02:48:44;;;;;;;19.27;14.48;;;;;;;23.46;59.71;95367.31;5085585;28;20036;-81
2023/08/24 02:51:10;;;;;;;19.20;13.30;;;;;;;23.18;60.01;95324.13;5068095;28;20051;-82
2023/08/24 02:53:36;;;;;;;19.27;12.63;;;;;;;23.36;59.56;95348.91;5069208;28;20039;-82
2023/08/24 02:56:02;;;;;;;19.77;14.30;;;;;;;23.51;59.19;95371.69;5066321;28;20048;-79
2023/08/24 02:58:27;;;;;;;19.30;13.73;;;;;;;23.41;59.13;95362.19;5073294;28;20039;-79
2023/08/24 03:00:53;;;;;;;18.25;13.50;;;;;;;23.43;58.59;95363.38;5073093;28;20427;-79
2023/08/24 03:03:18;;;;;;;16.10;12.93;;;;;;;23.14;58.50;95317.84;5058289;28;20143;-79
2023/08/24 03:06:04;;;;;;;22.98;13.18;;;;;;;23.39;57.62;95340.09;5084261;28;20032;-79
2023/08/24 03:08:31;;;;;;;20.95;12.95;;;;;;;23.49;57.48;95357.75;5073440;28;20033;-79
2023/08/24 03:10:57;;;;;;;23.70;13.35;;;;;;;23.63;57.40;95372.41;5061599;28;20193;-79
2023/08/24 03:13:22;;;;;;;21.20;13.70;;;;;;;23.70;57.59;95383.41;5073519;28;20156;-79
2023/08/24 03:15:48;;;;;;;19.98;14.13;;;;;;;23.44;57.24;95334.41;5070222;28;20257;-79
2023/08/24 03:18:15;;;;;;;24.52;14.30;;;;;;;23.07;57.43;95285.22;5056821;28;20028;-79
2023/08/24 03:20:41;;;;;;;19.60;13.05;;;;;;;23.25;57.08;95310.78;5087665;28;20077;-79
2023/08/24 03:23:07;;;;;;;18.60;13.38;;;;;;;23.37;57.89;95347.75;5072727;28;20289;-79
2023/08/24 03:25:36;;;;;;;17.60;12.93;;;;;;;23.58;57.84;95386.19;5054307;28;20048;-79
2023/08/24 03:28:02;;;;;;;32.03;13.77;;;;;;;23.40;57.62;95384.97;5054292;28;20098;-79
2023/08/24 03:30:28;;;;;;;20.90;13.45;;;;;;;23.52;56.87;95403.03;5056350;28;20028;-79
2023/08/24 03:32:53;;;;;;;28.65;14.95;;;;;;;23.22;57.07;95362.09;5105071;28;20487;-79
2023/08/24 03:35:19;;;;;;;24.33;15.27;;;;;;;23.38;58.27;95400.75;5090413;28;20035;-79
2023/08/24 03:37:44;;;;;;;25.27;16.60;;;;;;;23.13;58.39;95366.88;5104054;28;20020;-79
2023/08/24 03:40:11;;;;;;;26.08;15.75;;;;;;;23.32;58.63;95418.41;5092522;28;20054;-79
2023/08/24 03:42:37;;;;;;;24.52;17.08;;;;;;;23.19;58.88;95416.91;5082686;28;20024;-79
2023/08/24 03:45:03;;;;;;;26.50;16.92;;;;;;;22.80;59.60;95384.22;5099583;28;20028;-79
2023/08/24 03:47:28;;;;;;;26.52;16.42;;;;;;;22.62;60.27;95380.22;5084771;28;20027;-79
2023/08/24 03:49:54;;;;;;;37.00;18.67;;;;;;;22.32;61.09;95379.75;5090140;28;20367;-79
2023/08/24 03:52:20;;;;;;;23.70;17.52;;;;;;;22.60;60.89;95421.09;5076986;28;20055;-79
2023/08/24 03:54:46;;;;;;;29.20;18.50;;;;;;;22.59;61.13;95433.03;5087394;28;20126;-79
2023/08/24 03:57:11;;;;;;;29.58;18.35;;;;;;;22.71;60.88;95410.59;5088072;28;20045;-79
2023/08/24 03:59:37;;;;;;;30.52;17.42;;;;;;;22.73;60.61;95413.72;5074167;28;20386;-79
2023/08/24 04:02:03;;;;;;;31.30;17.55;;;;;;;22.63;60.78;95392.59;5107447;28;20506;-79
2023/08/24 04:04:30;;;;;;;30.48;16.98;;;;;;;22.79;60.81;95409.69;5092252;28;20104;-79
2023/08/24 04:06:55;;;;;;;25.27;17.30;;;;;;;22.85;60.92;95423.72;5088291;28;20044;-79
2023/08/24 04:09:21;;;;;;;27.83;17.52;;;;;;;22.87;61.17;95426.88;5077217;28;20028;-79
2023/08/24 04:11:46;;;;;;;24.92;16.23;;;;;;;22.81;61.02;95414.75;5085809;28;20032;-79
2023/08/24 04:14:13;;;;;;;30.73;16.73;;;;;;;22.65;61.62;95398.44;5080196;28;20119;-79
2023/08/24 04:16:39;;;;;;;26.33;16.45;;;;;;;22.75;61.32;95386.38;5084115;28;20487;-79
2023/08/24 04:19:04;;;;;;;24.02;16.67;;;;;;;22.98;61.29;95420.59;5092606;28;20039;-78
2023/08/24 04:21:30;;;;;;;26.77;16.60;;;;;;;22.73;61.07;95375.88;5084180;28;20032;-79
2023/08/24 04:23:55;;;;;;;24.20;16.55;;;;;;;22.84;60.94;95395.91;5080450;28;20029;-79
2023/08/24 04:26:20;;;;;;;24.88;16.02;;;;;;;22.87;60.80;95387.09;5087831;28;20023;-79
2023/08/24 04:28:46;;;;;;;27.52;16.55;;;;;;;22.96;60.84;95400.47;5076478;28;20036;-78
2023/08/24 04:31:11;;;;;;;28.00;17.50;;;;;;;22.92;60.67;95413.88;5108190;28;20031;-78
2023/08/24 04:33:37;;;;;;;23.23;15.50;;;;;;;23.01;60.55;95414.53;5092171;28;20054;-79
2023/08/24 04:36:03;;;;;;;26.48;17.67;;;;;;;22.89;59.87;95386.72;5090442;28;20027;-79
2023/08/24 04:38:29;;;;;;;27.98;17.15;;;;;;;22.94;60.09;95387.28;5106336;28;20343;-78
2023/08/24 04:40:55;;;;;;;32.08;17.85;;;;;;;23.11;60.23;95415.16;5074282;28;20027;-79
2023/08/24 04:43:23;;;;;;;35.30;16.92;;;;;;;22.81;60.26;95366.06;5089760;28;20024;-78
2023/08/24 04:45:53;;;;;;;23.73;16.83;;;;;;;22.87;60.87;95379.00;5090556;28;20027;-79
2023/08/24 04:48:20;;;;;;;29.50;16.92;;;;;;;23.26;60.68;95439.53;5074164;28;20112;-78
2023/08/24 04:50:46;;;;;;;31.23;16.58;;;;;;;23.32;60.80;95429.22;5107494;28;20488;-79
2023/08/24 04:53:17;;;;;;;27.65;16.30;;;;;;;23.23;60.39;95428.59;5063962;28;20035;-79
2023/08/24 04:55:43;;;;;;;30.52;16.85;;;;;;;23.22;60.72;95427.81;5092417;28;20478;-78
2023/08/24 04:58:09;;;;;;;28.25;16.48;;;;;;;22.68;60.46;95339.06;5084459;28;20043;-78
2023/08/24 05:00:35;;;;;;;30.45;17.50;;;;;;;23.11;60.51;95405.13;5094095;28;20039;-79
2023/08/24 05:03:02;;;;;;;25.90;17.35;;;;;;;23.28;60.67;95433.75;5067973;28;20293;-79
2023/08/24 05:05:35;;;;;;;34.35;16.88;;;;;;;23.29;60.51;95440.72;5069628;28;20031;-78
2023/08/24 05:08:05;;;;;;;27.10;17.25;;;;;;;23.37;60.63;95437.84;5061584;28;20722;-79
2023/08/24 05:10:33;;;;;;;31.10;16.38;;;;;;;23.39;60.71;95443.72;5060243;28;20048;-79
2023/08/24 05:12:58;;;;;;;31.15;18.63;;;;;;;23.26;60.67;95426.00;5060947;28;20149;-79
2023/08/24 05:15:24;;;;;;;32.50;17.92;;;;;;;23.28;60.29;95434.53;5072779;28;20477;-79
2023/08/24 05:17:52;;;;;;;33.05;17.23;;;;;;;23.42;60.08;95418.63;5107367;28;20032;-79
2023/08/24 05:20:18;;;;;;;21.88;17.13;;;;;;;23.15;59.51;95359.19;5108026;28;20054;-79
2023/08/24 05:22:43;;;;;;;24.00;17.92;;;;;;;23.63;59.70;95433.88;5102388;28;20394;-79
2023/08/24 05:25:09;;;;;;;26.83;18.00;;;;;;;23.41;59.28;95386.53;5072140;28;20032;-79
2023/08/24 05:27:34;;;;;;;24.90;18.63;;;;;;;23.92;59.34;95459.72;5097219;28;20413;-79
2023/08/24 05:30:00;;;;;;;36.35;19.85;;;;;;;23.66;58.35;95415.00;5098767;28;20047;-79
2023/08/24 05:32:25;;;;;;;40.63;21.45;;;;;;;23.99;57.90;95457.94;5084111;28;20054;-78
2023/08/24 05:34:50;;;;;;;31.52;19.27;;;;;;;24.07;57.13;95456.97;5087041;28;20038;-79
2023/08/24 05:37:16;;;;;;;33.38;19.48;;;;;;;24.12;56.81;95459.41;5107387;28;20047;-79
2023/08/24 05:39:42;;;;;;;34.58;20.13;;;;;;;23.89;56.85;95447.66;5074855;28;20043;-79
2023/08/24 05:42:08;;;;;;;32.78;19.77;;;;;;;24.00;56.78;95442.50;5090955;28;20027;-79
2023/08/24 05:44:34;;;;;;;27.48;17.55;;;;;;;23.99;56.28;95449.81;5072662;28;20056;-79
2023/08/24 05:46:59;;;;;;;27.73;18.33;;;;;;;23.73;56.14;95419.78;5089879;28;20069;-78
2023/08/24 05:49:24;;;;;;;21.88;17.02;;;;;;;23.88;56.30;95450.72;5078963;28;20416;-79
2023/08/24 05:51:51;;;;;;;38.33;19.05;;;;;;;23.69;56.27;95441.38;5096332;28;20023;-79
2023/08/24 05:54:20;;;;;;;28.40;19.00;;;;;;;23.17;57.30;95389.41;5113392;28;20483;-79
2023/08/24 05:56:46;;;;;;;45.50;17.83;;;;;;;23.74;56.97;95460.06;5107815;28;20467;-79
2023/08/24 05:59:12;;;;;;;22.77;17.17;;;;;;;23.70;57.15;95469.25;5088875;28;20114;-79
2023/08/24 06:01:38;;;;;;;30.00;18.95;;;;;;;23.92;57.18;95467.84;5086447;28;20075;-79
2023/08/24 06:04:13;;;;;;;33.45;19.60;;;;;;;23.86;56.64;95464.63;5079644;28;20443;-79
2023/08/24 06:06:38;;;;;;;31.27;18.60;;;;;;;23.92;56.39;95448.88;5107071;28;20036;-78
2023/08/24 06:09:06;;;;;;;31.27;19.58;;;;;;;24.00;56.47;95467.66;5087866;28;20438;-79
2023/08/24 06:11:32;;;;;;;36.65;20.15;;;;;;;23.95;56.19;95456.31;5074516;28;20028;-79
2023/08/24 06:13:58;;;;;;;32.10;20.70;;;;;;;23.94;55.95;95439.28;5091934;28;20035;-79
2023/08/24 06:16:23;;;;;;;33.20;19.38;;;;;;;24.12;56.10;95470.25;5114143;28;20046;-79
2023/08/24 06:18:49;;;;;;;26.38;19.88;;;;;;;24.27;55.97;95470.59;5086386;28;20042;-80
2023/08/24 06:21:15;;;;;;;33.95;19.63;;;;;;;24.41;55.56;95468.22;5114341;28;20484;-79
2023/08/24 06:23:41;;;;;;;27.50;20.15;;;;;;;24.31;55.49;95463.34;5095991;28;20151;-79
2023/08/24 06:26:07;;;;;;;39.33;20.70;;;;;;;24.12;55.23;95426.09;5098357;28;20034;-82
2023/08/24 06:28:32;;;;;;;26.50;19.50;;;;;;;24.53;54.72;95468.09;5110976;28;20533;-82
2023/08/24 06:31:00;;;;;;;34.08;19.67;;;;;;;24.25;55.05;95445.78;5112108;28;20044;-81
2023/08/24 06:33:32;;;;;;;30.85;19.65;;;;;;;24.05;55.30;95417.81;5089398;28;20048;-81
2023/08/24 06:35:57;;;;;;;32.33;19.40;;;;;;;24.64;54.97;95473.75;5080325;28;20063;-82
2023/08/24 06:38:23;;;;;;;30.27;19.48;;;;;;;24.58;54.39;95449.59;5067922;28;20040;-82
2023/08/24 06:40:48;;;;;;;28.60;19.13;;;;;;;24.84;54.29;95469.88;5069830;28;20056;-82
2023/08/24 06:43:14;;;;;;;34.42;21.35;;;;;;;25.01;53.67;95471.41;5070875;28;20032;-82
2023/08/24 06:45:44;;;;;;;32.95;20.00;;;;;;;24.79;53.49;95429.50;5087327;28;20078;-82
2023/08/24 06:48:09;;;;;;;29.73;20.27;;;;;;;24.96;53.52;95448.06;5066848;28;20036;-82
2023/08/24 06:50:36;;;;;;;30.35;20.42;;;;;;;24.89;53.35;95456.03;5097826;28;20070;-82
2023/08/24 06:53:03;;;;;;;31.20;19.75;;;;;;;25.11;53.48;95459.97;5104849;28;20051;-81
2023/08/24 06:55:29;;;;;;;36.72;20.85;;;;;;;24.84;53.25;95429.19;5105296;28;20073;-82
2023/08/24 06:57:55;;;;;;;33.47;19.77;;;;;;;25.21;52.89;95448.53;5086955;28;20039;-82
2023/08/24 07:00:20;;;;;;;41.10;21.58;;;;;;;25.21;53.10;95453.97;5088574;28;20536;-81
2023/08/24 07:02:49;;;;;;;43.38;21.77;;;;;;;25.15;52.89;95431.75;5106233;28;20039;-82
2023/08/24 07:05:18;;;;;;;30.38;19.02;;;;;;;25.38;53.27;95453.50;5102278;28;20172;-82
2023/08/24 07:07:49;;;;;;;35.20;20.90;;;;;;;25.27;52.71;95437.00;5079629;28;20078;-79
2023/08/24 07:10:15;;;;;;;35.20;18.98;;;;;;;25.30;52.35;95421.94;5054072;28;20059;-79
2023/08/24 07:12:40;;;;;;;29.45;18.10;;;;;;;25.60;51.66;95454.69;5072520;28;20070;-78
2023/08/24 07:15:07;;;;;;;27.10;17.45;;;;;;;25.56;51.46;95445.63;5072690;28;20147;-79
2023/08/24 07:17:33;;;;;;;29.23;16.48;;;;;;;25.64;51.89;95450.06;5072065;28;20499;-79
2023/08/24 07:19:58;;;;;;;28.35;18.10;;;;;;;25.55;51.97;95449.53;5054657;28;20078;-79
2023/08/24 07:22:26;;;;;;;33.20;19.17;;;;;;;25.44;51.73;95414.03;5053877;28;20070;-79
2023/08/24 07:24:52;;;;;;;29.33;18.30;;;;;;;25.63;51.64;95435.72;5072507;28;20052;-79
2023/08/24 07:27:18;;;;;;;28.55;19.13;;;;;;;25.82;51.48;95448.44;5054374;28;20626;-79
2023/08/24 07:29:44;;;;;;;27.55;18.83;;;;;;;25.98;51.58;95449.09;5063303;28;20063;-79
2023/08/24 07:32:09;;;;;;;23.65;17.40;;;;;;;26.05;51.45;95448.41;5099285;28;20064;-79
2023/08/24 07:34:35;;;;;;;37.42;20.08;;;;;;;25.91;50.90;95438.13;5095373;28;20114;-79
2023/08/24 07:37:00;;;;;;;34.92;19.95;;;;;;;25.83;50.55;95425.56;5079937;28;20032;-79
2023/08/24 07:39:26;;;;;;;39.88;18.73;;;;;;;26.05;50.48;95449.19;5075137;28;20028;-80
2023/08/24 07:41:51;;;;;;;33.55;19.35;;;;;;;26.02;50.48;95430.91;5093985;28;20024;-79
2023/08/24 07:44:17;;;;;;;35.45;18.85;;;;;;;26.05;50.82;95440.25;5078673;28;20023;-79
2023/08/24 07:46:42;;;;;;;37.20;19.70;;;;;;;26.19;50.37;95447.84;5095423;28;20087;-79
2023/08/24 07:49:08;;;;;;;28.52;19.05;;;;;;;26.32;50.08;95441.84;5099127;28;20031;-79
2023/08/24 07:51:34;;;;;;;30.40;20.15;;;;;;;26.39;49.79;95435.72;5074598;28;20034;-79
2023/08/24 07:54:00;;;;;;;26.05;17.77;;;;;;;26.48;50.16;95442.44;5094139;28;20575;-79
2023/08/24 07:56:25;;;;;;;29.42;20.83;;;;;;;26.22;49.62;95404.41;5103869;28;20027;-78
2023/08/24 07:58:51;;;;;;;31.70;20.05;;;;;;;26.58;49.59;95442.97;5099272;28;20084;-79
2023/08/24 08:01:16;;;;;;;32.85;20.20;;;;;;;26.54;49.19;95432.06;5083275;28;20036;-79
2023/08/24 08:03:42;;;;;;;35.35;19.73;;;;;;;26.63;49.12;95421.66;5111563;28;20027;-79
2023/08/24 08:06:07;;;;;;;31.50;19.52;;;;;;;26.66;48.83;95431.81;5110930;28;20032;-79
2023/08/24 08:08:33;;;;;;;26.45;18.73;;;;;;;26.65;48.76;95432.16;5104568;28;20111;-79
2023/08/24 08:11:00;;;;;;;32.50;17.65;;;;;;;26.86;48.13;95433.19;5075402;28;20101;-79
2023/08/24 08:13:29;;;;;;;22.73;16.25;;;;;;;26.96;48.07;95441.91;5089936;28;20036;-79
2023/08/24 08:16:06;;;;;;;29.38;18.05;;;;;;;26.96;48.01;95425.56;5084040;28;20032;-79
2023/08/24 08:18:35;;;;;;;38.83;17.98;;;;;;;26.89;47.57;95394.38;5103133;28;20016;-82
2023/08/24 08:21:02;;;;;;;31.38;16.80;;;;;;;27.19;47.26;95418.03;5090100;28;20024;-81
2023/08/24 08:23:27;;;;;;;27.17;15.38;;;;;;;27.17;47.18;95410.25;5088872;28;20452;-82
2023/08/24 08:25:53;;;;;;;30.75;17.48;;;;;;;27.19;47.25;95426.19;5111069;28;20060;-82
2023/08/24 08:28:18;;;;;;;22.00;15.07;;;;;;;27.13;46.72;95404.00;5086927;28;20044;-82
2023/08/24 08:30:44;;;;;;;27.92;15.07;;;;;;;27.33;46.02;95406.50;5107006;28;20039;-82
2023/08/24 08:33:10;;;;;;;28.45;16.27;;;;;;;27.43;46.25;95409.31;5111258;28;20044;-82
2023/08/24 08:35:37;;;;;;;25.95;16.67;;;;;;;27.53;46.08;95407.88;5125455;28;20039;-82
2023/08/24 08:38:03;;;;;;;27.10;17.63;;;;;;;27.44;45.43;95401.94;5128883;28;20031;-82
2023/08/24 08:40:30;;;;;;;22.35;16.98;;;;;;;27.46;46.25;95400.41;5114068;28;20084;-83
2023/08/24 08:42:57;;;;;;;23.85;15.98;;;;;;;27.48;45.54;95387.19;5128242;27;20051;-81
2023/08/24 08:45:26;;;;;;;25.45;15.30;;;;;;;27.53;45.40;95395.06;5102959;22;20052;-80
2023/08/24 08:47:57;;;;;;;24.42;15.50;;;;;;;27.76;45.04;95403.03;5068531;28;20044;-80
2023/08/24 08:50:23;;;;;;;;;;;;;;;27.89;44.67;95414.41;5061359;28;20033;-80
2023/08/24 08:52:49;;;;;;;29.30;15.85;;;;;;;27.85;44.52;95389.03;5069767;28;19924;-81
2023/08/24 08:55:15;;;;;;;26.65;14.73;;;;;;;27.71;44.14;95364.41;5097040;28;20029;-79
2023/08/24 08:57:42;;;;;;;32.65;14.30;;;;;;;27.92;44.34;95381.69;5071622;28;20056;-80
2023/08/24 09:00:12;;;;;;;26.80;15.25;;;;;;;27.83;44.83;95347.78;5080211;28;20066;-80
2023/08/24 09:02:43;;;;;;;22.48;15.65;;;;;;;27.87;44.17;95348.56;5069106;28;20043;-85
2023/08/24 09:05:09;;;;;;;34.13;16.92;;;;;;;28.15;44.30;95369.78;5075320;28;20032;-80
2023/08/24 09:07:35;;;;;;;25.83;15.63;;;;;;;28.34;44.13;95383.16;5063551;28;20040;-80
2023/08/24 09:10:03;;;;;;;24.90;16.60;;;;;;;28.13;43.51;95347.56;5068226;28;20097;-80
2023/08/24 09:12:33;;;;;;;21.45;13.98;;;;;;;28.22;43.58;95334.41;5067406;28;20127;-81
2023/08/24 09:14:58;;;;;;;28.38;15.13;;;;;;;28.47;43.89;95359.81;5055529;28;20113;-79
2023/08/24 09:17:23;;;;;;;31.17;14.73;;;;;;;28.25;43.76;95311.81;5084639;28;20040;-79
2023/08/24 09:19:51;;;;;;;23.85;15.45;;;;;;;28.39;43.48;95337.19;5063418;28;20024;-79
2023/08/24 09:22:17;;;;;;;25.25;15.07;;;;;;;28.47;42.83;95342.69;5051383;28;20106;-79
2023/08/24 09:24:44;;;;;;;22.60;14.35;;;;;;;28.64;42.85;95344.69;5033075;28;20025;-86
2023/08/24 09:27:20;;;;;;;22.48;14.77;;;;;;;28.81;42.96;95348.69;5049532;28;20040;-86
2023/08/24 09:29:50;;;;;;;19.25;14.45;;;;;;;28.71;42.50;95306.50;5049040;28;20029;-85
2023/08/24 09:32:15;;;;;;;21.30;14.60;;;;;;;28.86;42.28;95319.03;5057297;28;20032;-86
2023/08/24 09:35:09;;;;;;;25.23;15.38;;;;;;;29.03;41.81;95317.53;5066624;28;20401;-79
2023/08/24 09:37:36;;;;;;;26.95;14.55;;;;;;;29.00;41.72;95318.28;5048192;28;20041;-79
2023/08/24 09:40:11;;;;;;;29.17;15.35;;;;;;;29.03;41.99;95298.41;5061878;28;20458;-79
2023/08/24 09:42:41;;;;;;;22.83;14.73;;;;;;;29.39;41.93;95335.50;5046121;28;20031;-79
2023/08/24 09:45:10;;;;;;;19.77;13.90;;;;;;;29.38;41.56;95325.75;5046103;28;20523;-79
2023/08/24 09:47:36;;;;;;;21.83;14.68;;;;;;;29.51;41.44;95331.63;5046925;28;20377;-79
2023/08/24 09:50:03;;;;;;;23.08;16.02;;;;;;;29.50;41.11;95333.56;5044575;28;20044;-79
2023/08/24 09:52:32;;;;;;;19.45;15.18;;;;;;;29.25;40.69;95285.53;5045437;28;20024;-79
2023/08/24 09:55:04;;;;;;;24.73;14.13;;;;;;;29.31;40.43;95268.38;5045897;28;20040;-79
2023/08/24 09:57:36;;;;;;;24.08;14.88;;;;;;;30.09;39.93;95320.22;5045903;28;20518;-79
2023/08/24 10:00:06;;;;;;;20.30;14.18;;;;;;;30.56;39.04;95283.31;5048348;28;20498;-79
2023/08/24 10:02:36;;;;;;;16.58;11.77;;;;;;;31.47;35.44;95317.94;5049012;28;20170;-79
2023/08/24 10:05:03;;;;;;;17.10;11.50;;;;;;;31.92;34.65;95283.84;5045766;28;20139;-79
2023/08/24 10:07:30;;;;;;;15.88;11.32;;;;;;;32.68;33.17;95317.47;5047347;28;20041;-79
2023/08/24 10:10:08;;;;;;;15.40;11.38;;;;;;;33.42;32.60;95312.91;5045639;28;20083;-79
2023/08/24 10:12:41;;;;;;;19.75;11.23;;;;;;;33.75;31.39;95272.69;5044253;28;20040;-80
2023/08/24 10:15:08;;;;;;;14.32;11.07;;;;;;;34.29;30.62;95265.00;5065948;28;20033;-79
2023/08/24 10:17:36;;;;;;;13.65;10.23;;;;;;;34.81;29.72;95304.44;5046002;28;20025;-80
2023/08/24 10:20:05;;;;;;;13.98;9.60;;;;;;;35.53;28.44;95295.31;5047258;28;20025;-79
2023/08/24 10:22:33;;;;;;;14.40;10.27;;;;;;;35.81;28.35;95293.84;5045511;28;20366;-80
2023/08/24 10:24:59;;;;;;;13.35;10.13;;;;;;;35.91;28.37;95268.72;5049130;28;20475;-79
2023/08/24 10:27:27;;;;;;;14.25;9.80;;;;;;;36.49;27.10;95284.50;5050508;28;20025;-79
2023/08/24 10:29:53;;;;;;;11.43;9.43;;;;;;;36.82;27.20;95268.53;5045524;28;20033;-79
2023/08/24 10:32:21;;;;;;;11.88;9.15;;;;;;;36.55;26.10;95272.47;5045963;28;20056;-80
2023/08/24 10:34:48;;;;;;;14.20;8.82;;;;;;;36.88;25.91;95295.19;5049452;28;20566;-80
2023/08/24 10:37:13;;;;;;;11.95;9.40;;;;;;;36.80;26.37;95293.84;5045778;28;20033;-79
2023/08/24 10:39:46;;;;;;;17.17;10.02;;;;;;;36.30;26.94;95292.53;5047282;28;20029;-80
2023/08/24 10:42:13;;;;;;;17.77;10.43;;;;;;;35.93;27.38;95260.03;5045818;28;20415;-79
2023/08/24 10:44:43;;;;;;;14.25;10.43;;;;;;;35.84;27.54;95284.69;5074782;28;20064;-79
2023/08/24 10:47:14;;;;;;;13.40;9.90;;;;;;;35.31;28.00;95294.28;5033420;28;20033;-79
2023/08/24 10:49:39;;;;;;;;;;;;;;;34.81;29.19;95292.63;5039063;28;20094;-79
2023/08/24 10:52:24;;;;;;;20.33;11.82;;;;;;;34.49;30.33;95293.28;5040084;28;19925;-80
2023/08/24 10:54:51;;;;;;;16.67;11.02;;;;;;;34.38;30.39;95298.25;5044137;28;20116;-79
2023/08/24 10:57:19;;;;;;;20.33;11.32;;;;;;;34.02;31.16;95278.88;5033890;28;20563;-80
2023/08/24 10:59:45;;;;;;;21.17;11.98;;;;;;;33.59;32.53;95267.84;5033481;28;20069;-79
2023/08/24 11:02:19;;;;;;;26.50;12.80;;;;;;;33.47;33.82;95307.72;5030962;28;20424;-79
2023/08/24 11:05:04;;;;;;;18.27;10.05;;;;;;;32.74;33.69;95291.13;5043967;28;20512;-80
2023/08/24 11:07:29;;;;;;;17.75;11.45;;;;;;;32.20;34.38;95267.09;5033084;28;20443;-79
2023/08/24 11:09:55;;;;;;;20.27;11.57;;;;;;;32.02;35.05;95266.50;5033954;28;20539;-79
2023/08/24 11:12:20;;;;;;;19.83;11.63;;;;;;;32.16;35.45;95276.56;5031785;28;20065;-79
2023/08/24 11:14:58;;;;;;;22.33;12.20;;;;;;;32.19;35.14;95286.72;5031794;28;20128;-80
2023/08/24 11:17:29;;;;;;;15.13;11.60;;;;;;;32.18;35.13;95279.69;5034662;28;20033;-80